sensor_id;sensor_type;location;lat;lon;timestamp;P1;durP1;ratioP1;P2;durP2;ratioP2
5393;SDS011;2720;52.396;10.064;2023-03-31T00:01:04;3.57;;;2.63;;
5393;SDS011;2720;52.396;10.064;2023-03-31T00:03:31;8.10;;;3.03;;
5393;SDS011;2720;52.396;10.064;2023-03-31T00:06:03;7.60;;;3.40;;
5393;SDS011;2720;52.396;10.064;2023-03-31T00:08:30;8.20;;;4.10;;
5393;SDS011;2720;52.396;10.064;2023-03-31T00:11:01;12.10;;;2.97;;
5393;SDS011;2720;52.396;10.064;2023-03-31T00:13:30;10.47;;;2.37;;
5393;SDS011;2720;52.396;10.064;2023-03-31T00:15:57;8.80;;;2.50;;
5393;SDS011;2720;52.396;10.064;2023-03-31T00:18:26;8.87;;;3.10;;
5393;SDS011;2720;52.396;10.064;2023-03-31T00:20:54;15.97;;;2.60;;
5393;SDS011;2720;52.396;10.064;2023-03-31T00:23:26;7.93;;;2.00;;
5393;SDS011;2720;52.396;10.064;2023-03-31T00:25:53;5.20;;;2.40;;
5393;SDS011;2720;52.396;10.064;2023-03-31T00:28:20;6.23;;;2.33;;
5393;SDS011;2720;52.396;10.064;2023-03-31T00:30:49;9.30;;;2.60;;
5393;SDS011;2720;52.396;10.064;2023-03-31T00:33:17;15.33;;;2.40;;
5393;SDS011;2720;52.396;10.064;2023-03-31T00:35:43;9.23;;;2.73;;
5393;SDS011;2720;52.396;10.064;2023-03-31T00:38:10;11.73;;;1.70;;
5393;SDS011;2720;52.396;10.064;2023-03-31T00:40:43;6.37;;;3.10;;
5393;SDS011;2720;52.396;10.064;2023-03-31T00:43:19;4.00;;;2.07;;
5393;SDS011;2720;52.396;10.064;2023-03-31T00:45:59;8.03;;;2.40;;
5393;SDS011;2720;52.396;10.064;2023-03-31T00:48:40;5.83;;;2.13;;
5393;SDS011;2720;52.396;10.064;2023-03-31T00:51:12;13.33;;;2.83;;
5393;SDS011;2720;52.396;10.064;2023-03-31T00:53:40;10.20;;;1.80;;
5393;SDS011;2720;52.396;10.064;2023-03-31T00:56:08;5.50;;;2.00;;
5393;SDS011;2720;52.396;10.064;2023-03-31T00:58:39;13.30;;;2.27;;
5393;SDS011;2720;52.396;10.064;2023-03-31T01:01:11;7.10;;;1.80;;
5393;SDS011;2720;52.396;10.064;2023-03-31T01:03:41;9.10;;;2.30;;
5393;SDS011;2720;52.396;10.064;2023-03-31T01:06:11;3.80;;;1.53;;
5393;SDS011;2720;52.396;10.064;2023-03-31T01:08:43;5.57;;;1.77;;
5393;SDS011;2720;52.396;10.064;2023-03-31T01:11:12;11.17;;;2.80;;
5393;SDS011;2720;52.396;10.064;2023-03-31T01:13:41;10.03;;;3.00;;
5393;SDS011;2720;52.396;10.064;2023-03-31T01:16:11;12.27;;;2.40;;
5393;SDS011;2720;52.396;10.064;2023-03-31T01:18:38;8.63;;;1.90;;
5393;SDS011;2720;52.396;10.064;2023-03-31T01:21:21;3.90;;;2.53;;
5393;SDS011;2720;52.396;10.064;2023-03-31T01:27:36;13.27;;;2.20;;
5393;SDS011;2720;52.396;10.064;2023-03-31T01:30:25;15.10;;;1.70;;
5393;SDS011;2720;52.396;10.064;2023-03-31T01:33:23;12.80;;;2.30;;
5393;SDS011;2720;52.396;10.064;2023-03-31T01:36:22;8.07;;;1.50;;
5393;SDS011;2720;52.396;10.064;2023-03-31T01:39:18;11.23;;;2.37;;
5393;SDS011;2720;52.396;10.064;2023-03-31T01:42:05;10.87;;;2.30;;
5393;SDS011;2720;52.396;10.064;2023-03-31T01:44:39;5.27;;;1.80;;
5393;SDS011;2720;52.396;10.064;2023-03-31T01:47:13;4.03;;;1.33;;
5393;SDS011;2720;52.396;10.064;2023-03-31T01:49:49;6.80;;;2.10;;
5393;SDS011;2720;52.396;10.064;2023-03-31T01:52:23;11.17;;;2.37;;
5393;SDS011;2720;52.396;10.064;2023-03-31T01:54:55;7.57;;;1.70;;
5393;SDS011;2720;52.396;10.064;2023-03-31T01:57:28;12.10;;;2.07;;
5393;SDS011;2720;52.396;10.064;2023-03-31T02:00:01;5.63;;;1.40;;
5393;SDS011;2720;52.396;10.064;2023-03-31T02:02:30;16.63;;;3.10;;
5393;SDS011;2720;52.396;10.064;2023-03-31T02:05:04;15.53;;;1.93;;
5393;SDS011;2720;52.396;10.064;2023-03-31T02:07:35;5.30;;;1.60;;
5393;SDS011;2720;52.396;10.064;2023-03-31T02:10:08;9.80;;;2.67;;
5393;SDS011;2720;52.396;10.064;2023-03-31T02:12:38;6.70;;;2.20;;
5393;SDS011;2720;52.396;10.064;2023-03-31T02:15:08;6.90;;;1.63;;
5393;SDS011;2720;52.396;10.064;2023-03-31T02:17:38;5.43;;;1.60;;
5393;SDS011;2720;52.396;10.064;2023-03-31T02:20:10;5.80;;;2.03;;
5393;SDS011;2720;52.396;10.064;2023-03-31T02:22:40;3.73;;;2.07;;
5393;SDS011;2720;52.396;10.064;2023-03-31T02:25:14;5.67;;;2.17;;
5393;SDS011;2720;52.396;10.064;2023-03-31T02:27:45;10.50;;;2.27;;
5393;SDS011;2720;52.396;10.064;2023-03-31T02:30:16;6.33;;;2.23;;
5393;SDS011;2720;52.396;10.064;2023-03-31T02:32:43;5.63;;;1.90;;
5393;SDS011;2720;52.396;10.064;2023-03-31T02:35:13;5.07;;;1.60;;
5393;SDS011;2720;52.396;10.064;2023-03-31T02:37:41;7.80;;;1.80;;
5393;SDS011;2720;52.396;10.064;2023-03-31T02:40:10;3.83;;;1.83;;
5393;SDS011;2720;52.396;10.064;2023-03-31T02:42:43;9.57;;;1.33;;
5393;SDS011;2720;52.396;10.064;2023-03-31T02:48:09;3.93;;;1.17;;
5393;SDS011;2720;52.396;10.064;2023-03-31T02:50:42;11.33;;;1.97;;
5393;SDS011;2720;52.396;10.064;2023-03-31T02:53:27;7.83;;;2.07;;
5393;SDS011;2720;52.396;10.064;2023-03-31T02:56:01;3.07;;;1.93;;
5393;SDS011;2720;52.396;10.064;2023-03-31T02:58:46;14.03;;;1.90;;
5393;SDS011;2720;52.396;10.064;2023-03-31T03:01:49;8.00;;;1.83;;
5393;SDS011;2720;52.396;10.064;2023-03-31T03:04:35;9.07;;;2.20;;
5393;SDS011;2720;52.396;10.064;2023-03-31T03:07:15;3.33;;;1.60;;
5393;SDS011;2720;52.396;10.064;2023-03-31T03:09:51;3.80;;;1.40;;
5393;SDS011;2720;52.396;10.064;2023-03-31T03:12:26;6.00;;;1.80;;
5393;SDS011;2720;52.396;10.064;2023-03-31T03:15:01;7.13;;;1.90;;
5393;SDS011;2720;52.396;10.064;2023-03-31T03:17:33;4.20;;;1.97;;
5393;SDS011;2720;52.396;10.064;2023-03-31T03:20:03;5.80;;;2.00;;
5393;SDS011;2720;52.396;10.064;2023-03-31T03:22:32;9.03;;;2.30;;
5393;SDS011;2720;52.396;10.064;2023-03-31T03:25:00;10.43;;;1.83;;
5393;SDS011;2720;52.396;10.064;2023-03-31T03:27:27;6.07;;;2.40;;
5393;SDS011;2720;52.396;10.064;2023-03-31T03:29:54;6.00;;;2.93;;
5393;SDS011;2720;52.396;10.064;2023-03-31T03:32:22;11.10;;;2.17;;
5393;SDS011;2720;52.396;10.064;2023-03-31T03:34:49;5.03;;;2.23;;
5393;SDS011;2720;52.396;10.064;2023-03-31T03:37:16;6.77;;;2.80;;
5393;SDS011;2720;52.396;10.064;2023-03-31T03:39:43;5.93;;;1.73;;
5393;SDS011;2720;52.396;10.064;2023-03-31T03:42:10;6.07;;;1.47;;
5393;SDS011;2720;52.396;10.064;2023-03-31T03:44:37;8.90;;;1.60;;
5393;SDS011;2720;52.396;10.064;2023-03-31T03:47:05;28.03;;;2.47;;
5393;SDS011;2720;52.396;10.064;2023-03-31T03:49:33;3.87;;;2.33;;
5393;SDS011;2720;52.396;10.064;2023-03-31T03:52:00;3.80;;;1.57;;
5393;SDS011;2720;52.396;10.064;2023-03-31T03:54:27;14.27;;;1.60;;
5393;SDS011;2720;52.396;10.064;2023-03-31T03:56:54;13.13;;;1.43;;
5393;SDS011;2720;52.396;10.064;2023-03-31T03:59:21;6.40;;;1.83;;
5393;SDS011;2720;52.396;10.064;2023-03-31T04:01:48;3.70;;;1.73;;
5393;SDS011;2720;52.396;10.064;2023-03-31T04:04:16;4.43;;;1.63;;
5393;SDS011;2720;52.396;10.064;2023-03-31T04:06:45;6.37;;;2.13;;
5393;SDS011;2720;52.396;10.064;2023-03-31T04:09:12;7.30;;;1.67;;
5393;SDS011;2720;52.396;10.064;2023-03-31T04:11:39;3.20;;;1.13;;
5393;SDS011;2720;52.396;10.064;2023-03-31T04:14:06;5.93;;;1.70;;
5393;SDS011;2720;52.396;10.064;2023-03-31T04:16:33;7.20;;;1.90;;
5393;SDS011;2720;52.396;10.064;2023-03-31T04:19:00;7.13;;;2.33;;
5393;SDS011;2720;52.396;10.064;2023-03-31T04:21:29;2.27;;;1.57;;
5393;SDS011;2720;52.396;10.064;2023-03-31T04:24:00;2.00;;;1.47;;
5393;SDS011;2720;52.396;10.064;2023-03-31T04:26:29;4.60;;;1.47;;
5393;SDS011;2720;52.396;10.064;2023-03-31T04:29:03;12.90;;;2.50;;
5393;SDS011;2720;52.396;10.064;2023-03-31T04:31:31;4.93;;;1.37;;
5393;SDS011;2720;52.396;10.064;2023-03-31T04:34:02;4.17;;;2.20;;
5393;SDS011;2720;52.396;10.064;2023-03-31T04:36:31;9.83;;;1.70;;
5393;SDS011;2720;52.396;10.064;2023-03-31T04:38:59;9.33;;;1.63;;
5393;SDS011;2720;52.396;10.064;2023-03-31T04:41:26;6.20;;;2.17;;
5393;SDS011;2720;52.396;10.064;2023-03-31T04:43:53;4.83;;;2.17;;
5393;SDS011;2720;52.396;10.064;2023-03-31T04:46:20;9.47;;;1.73;;
5393;SDS011;2720;52.396;10.064;2023-03-31T04:48:47;4.63;;;1.40;;
5393;SDS011;2720;52.396;10.064;2023-03-31T04:51:14;3.07;;;1.30;;
5393;SDS011;2720;52.396;10.064;2023-03-31T04:53:41;3.37;;;1.17;;
5393;SDS011;2720;52.396;10.064;2023-03-31T04:56:10;4.97;;;1.63;;
5393;SDS011;2720;52.396;10.064;2023-03-31T04:58:37;8.13;;;2.03;;
5393;SDS011;2720;52.396;10.064;2023-03-31T05:01:04;5.93;;;1.77;;
5393;SDS011;2720;52.396;10.064;2023-03-31T05:03:31;9.80;;;2.47;;
5393;SDS011;2720;52.396;10.064;2023-03-31T05:05:58;8.10;;;2.47;;
5393;SDS011;2720;52.396;10.064;2023-03-31T05:08:25;20.47;;;1.57;;
5393;SDS011;2720;52.396;10.064;2023-03-31T05:10:53;6.03;;;2.10;;
5393;SDS011;2720;52.396;10.064;2023-03-31T05:13:21;6.70;;;1.50;;
5393;SDS011;2720;52.396;10.064;2023-03-31T05:15:48;6.03;;;1.93;;
5393;SDS011;2720;52.396;10.064;2023-03-31T05:18:15;10.90;;;1.60;;
5393;SDS011;2720;52.396;10.064;2023-03-31T05:20:43;6.70;;;1.60;;
5393;SDS011;2720;52.396;10.064;2023-03-31T05:23:10;8.67;;;1.83;;
5393;SDS011;2720;52.396;10.064;2023-03-31T05:25:37;18.03;;;2.80;;
5393;SDS011;2720;52.396;10.064;2023-03-31T05:28:06;11.63;;;1.50;;
5393;SDS011;2720;52.396;10.064;2023-03-31T05:30:35;7.03;;;1.40;;
5393;SDS011;2720;52.396;10.064;2023-03-31T05:33:02;9.60;;;2.17;;
5393;SDS011;2720;52.396;10.064;2023-03-31T05:35:29;13.37;;;2.80;;
5393;SDS011;2720;52.396;10.064;2023-03-31T05:37:56;4.40;;;1.07;;
5393;SDS011;2720;52.396;10.064;2023-03-31T05:40:23;11.97;;;2.17;;
5393;SDS011;2720;52.396;10.064;2023-03-31T05:42:50;9.20;;;1.37;;
5393;SDS011;2720;52.396;10.064;2023-03-31T05:45:17;4.50;;;1.17;;
5393;SDS011;2720;52.396;10.064;2023-03-31T05:47:45;9.13;;;2.10;;
5393;SDS011;2720;52.396;10.064;2023-03-31T05:50:12;6.20;;;1.70;;
5393;SDS011;2720;52.396;10.064;2023-03-31T05:52:39;6.07;;;1.00;;
5393;SDS011;2720;52.396;10.064;2023-03-31T05:55:06;11.50;;;1.70;;
5393;SDS011;2720;52.396;10.064;2023-03-31T05:57:34;2.80;;;1.20;;
5393;SDS011;2720;52.396;10.064;2023-03-31T06:00:01;4.67;;;1.97;;
5393;SDS011;2720;52.396;10.064;2023-03-31T06:02:30;7.60;;;1.20;;
5393;SDS011;2720;52.396;10.064;2023-03-31T06:05:00;8.20;;;1.40;;
5393;SDS011;2720;52.396;10.064;2023-03-31T06:07:27;4.57;;;1.70;;
5393;SDS011;2720;52.396;10.064;2023-03-31T06:09:54;2.53;;;1.20;;
5393;SDS011;2720;52.396;10.064;2023-03-31T06:12:21;6.33;;;2.00;;
5393;SDS011;2720;52.396;10.064;2023-03-31T06:14:48;2.80;;;1.00;;
5393;SDS011;2720;52.396;10.064;2023-03-31T06:17:15;8.90;;;1.57;;
5393;SDS011;2720;52.396;10.064;2023-03-31T06:19:42;5.03;;;1.53;;
5393;SDS011;2720;52.396;10.064;2023-03-31T06:22:10;3.20;;;1.23;;
5393;SDS011;2720;52.396;10.064;2023-03-31T06:24:37;6.23;;;1.80;;
5393;SDS011;2720;52.396;10.064;2023-03-31T06:27:05;9.40;;;1.53;;
5393;SDS011;2720;52.396;10.064;2023-03-31T06:29:32;13.97;;;1.50;;
5393;SDS011;2720;52.396;10.064;2023-03-31T06:31:59;10.43;;;1.60;;
5393;SDS011;2720;52.396;10.064;2023-03-31T06:34:26;10.70;;;2.20;;
5393;SDS011;2720;52.396;10.064;2023-03-31T06:36:53;6.97;;;1.13;;
5393;SDS011;2720;52.396;10.064;2023-03-31T06:39:22;8.43;;;3.00;;
5393;SDS011;2720;52.396;10.064;2023-03-31T06:41:49;9.63;;;4.37;;
5393;SDS011;2720;52.396;10.064;2023-03-31T06:44:16;7.70;;;1.27;;
5393;SDS011;2720;52.396;10.064;2023-03-31T06:46:47;3.60;;;1.23;;
5393;SDS011;2720;52.396;10.064;2023-03-31T06:49:14;5.83;;;1.03;;
5393;SDS011;2720;52.396;10.064;2023-03-31T06:51:40;7.17;;;1.60;;
5393;SDS011;2720;52.396;10.064;2023-03-31T06:54:07;4.97;;;1.53;;
5393;SDS011;2720;52.396;10.064;2023-03-31T06:56:36;9.83;;;1.80;;
5393;SDS011;2720;52.396;10.064;2023-03-31T06:59:03;4.07;;;2.13;;
5393;SDS011;2720;52.396;10.064;2023-03-31T07:01:30;7.47;;;1.67;;
5393;SDS011;2720;52.396;10.064;2023-03-31T07:04:01;6.83;;;1.63;;
5393;SDS011;2720;52.396;10.064;2023-03-31T07:06:28;5.20;;;1.20;;
5393;SDS011;2720;52.396;10.064;2023-03-31T07:08:55;5.10;;;1.40;;
5393;SDS011;2720;52.396;10.064;2023-03-31T07:11:22;8.13;;;1.30;;
5393;SDS011;2720;52.396;10.064;2023-03-31T07:13:50;19.27;;;2.27;;
5393;SDS011;2720;52.396;10.064;2023-03-31T07:16:17;6.27;;;1.67;;
5393;SDS011;2720;52.396;10.064;2023-03-31T07:18:45;1.30;;;0.90;;
5393;SDS011;2720;52.396;10.064;2023-03-31T07:21:11;9.07;;;1.27;;
5393;SDS011;2720;52.396;10.064;2023-03-31T07:23:38;13.80;;;2.10;;
5393;SDS011;2720;52.396;10.064;2023-03-31T07:26:05;4.70;;;1.50;;
5393;SDS011;2720;52.396;10.064;2023-03-31T07:28:33;4.53;;;1.10;;
5393;SDS011;2720;52.396;10.064;2023-03-31T07:31:01;4.30;;;1.17;;
5393;SDS011;2720;52.396;10.064;2023-03-31T07:33:28;13.60;;;1.70;;
5393;SDS011;2720;52.396;10.064;2023-03-31T07:35:55;6.73;;;2.07;;
5393;SDS011;2720;52.396;10.064;2023-03-31T07:38:22;4.10;;;1.00;;
5393;SDS011;2720;52.396;10.064;2023-03-31T07:40:49;8.30;;;1.50;;
5393;SDS011;2720;52.396;10.064;2023-03-31T07:43:16;3.03;;;1.23;;
5393;SDS011;2720;52.396;10.064;2023-03-31T07:45:43;2.73;;;1.10;;
5393;SDS011;2720;52.396;10.064;2023-03-31T07:48:11;5.07;;;1.30;;
5393;SDS011;2720;52.396;10.064;2023-03-31T07:50:38;3.70;;;1.40;;
5393;SDS011;2720;52.396;10.064;2023-03-31T07:53:05;3.77;;;2.10;;
5393;SDS011;2720;52.396;10.064;2023-03-31T07:55:32;6.27;;;2.13;;
5393;SDS011;2720;52.396;10.064;2023-03-31T07:57:59;4.80;;;1.60;;
5393;SDS011;2720;52.396;10.064;2023-03-31T08:00:26;3.87;;;1.80;;
5393;SDS011;2720;52.396;10.064;2023-03-31T08:02:53;3.70;;;1.73;;
5393;SDS011;2720;52.396;10.064;2023-03-31T08:05:22;11.47;;;2.10;;
5393;SDS011;2720;52.396;10.064;2023-03-31T08:07:49;9.60;;;1.93;;
5393;SDS011;2720;52.396;10.064;2023-03-31T08:10:17;5.10;;;1.73;;
5393;SDS011;2720;52.396;10.064;2023-03-31T08:12:46;11.57;;;2.20;;
5393;SDS011;2720;52.396;10.064;2023-03-31T08:15:13;7.63;;;1.97;;
5393;SDS011;2720;52.396;10.064;2023-03-31T08:17:41;5.80;;;2.40;;
5393;SDS011;2720;52.396;10.064;2023-03-31T08:20:08;3.97;;;1.70;;
5393;SDS011;2720;52.396;10.064;2023-03-31T08:22:37;8.10;;;2.73;;
5393;SDS011;2720;52.396;10.064;2023-03-31T08:25:05;6.20;;;1.80;;
5393;SDS011;2720;52.396;10.064;2023-03-31T08:27:33;5.20;;;2.13;;
5393;SDS011;2720;52.396;10.064;2023-03-31T08:30:00;7.70;;;1.60;;
5393;SDS011;2720;52.396;10.064;2023-03-31T08:32:28;5.07;;;1.93;;
5393;SDS011;2720;52.396;10.064;2023-03-31T08:34:56;3.93;;;1.67;;
5393;SDS011;2720;52.396;10.064;2023-03-31T08:37:23;3.03;;;1.37;;
5393;SDS011;2720;52.396;10.064;2023-03-31T08:39:53;2.53;;;1.93;;
5393;SDS011;2720;52.396;10.064;2023-03-31T08:42:20;5.70;;;1.80;;
5393;SDS011;2720;52.396;10.064;2023-03-31T08:44:55;4.23;;;1.50;;
5393;SDS011;2720;52.396;10.064;2023-03-31T08:47:25;5.80;;;2.00;;
5393;SDS011;2720;52.396;10.064;2023-03-31T08:49:55;5.30;;;1.20;;
5393;SDS011;2720;52.396;10.064;2023-03-31T08:52:26;15.23;;;2.20;;
5393;SDS011;2720;52.396;10.064;2023-03-31T08:55:00;6.13;;;2.27;;
5393;SDS011;2720;52.396;10.064;2023-03-31T08:57:31;6.93;;;2.00;;
5393;SDS011;2720;52.396;10.064;2023-03-31T09:00:08;2.80;;;1.40;;
5393;SDS011;2720;52.396;10.064;2023-03-31T09:02:41;5.03;;;2.00;;
5393;SDS011;2720;52.396;10.064;2023-03-31T09:05:22;3.63;;;1.90;;
5393;SDS011;2720;52.396;10.064;2023-03-31T09:08:17;3.17;;;1.60;;
5393;SDS011;2720;52.396;10.064;2023-03-31T09:10:57;5.23;;;1.63;;
5393;SDS011;2720;52.396;10.064;2023-03-31T09:13:45;4.50;;;2.00;;
5393;SDS011;2720;52.396;10.064;2023-03-31T09:16:37;5.57;;;1.80;;
5393;SDS011;2720;52.396;10.064;2023-03-31T09:19:10;2.20;;;1.33;;
5393;SDS011;2720;52.396;10.064;2023-03-31T09:21:40;9.47;;;1.30;;
5393;SDS011;2720;52.396;10.064;2023-03-31T09:24:11;5.07;;;1.53;;
5393;SDS011;2720;52.396;10.064;2023-03-31T09:26:46;4.00;;;1.20;;
5393;SDS011;2720;52.396;10.064;2023-03-31T09:29:18;12.70;;;2.40;;
5393;SDS011;2720;52.396;10.064;2023-03-31T09:31:51;6.37;;;2.23;;
5393;SDS011;2720;52.396;10.064;2023-03-31T09:34:22;5.93;;;1.67;;
5393;SDS011;2720;52.396;10.064;2023-03-31T09:36:50;1.23;;;0.90;;
5393;SDS011;2720;52.396;10.064;2023-03-31T09:39:17;7.63;;;1.10;;
5393;SDS011;2720;52.396;10.064;2023-03-31T09:41:47;3.20;;;1.40;;
5393;SDS011;2720;52.396;10.064;2023-03-31T09:44:23;4.90;;;1.00;;
5393;SDS011;2720;52.396;10.064;2023-03-31T09:46:53;8.27;;;2.00;;
5393;SDS011;2720;52.396;10.064;2023-03-31T09:49:21;3.93;;;1.40;;
5393;SDS011;2720;52.396;10.064;2023-03-31T09:51:51;6.47;;;1.70;;
5393;SDS011;2720;52.396;10.064;2023-03-31T09:54:27;5.50;;;1.50;;
5393;SDS011;2720;52.396;10.064;2023-03-31T09:57:21;7.97;;;1.93;;
5393;SDS011;2720;52.396;10.064;2023-03-31T09:59:50;2.43;;;1.33;;
5393;SDS011;2720;52.396;10.064;2023-03-31T10:02:23;1.50;;;1.20;;
5393;SDS011;2720;52.396;10.064;2023-03-31T10:04:59;4.43;;;1.63;;
5393;SDS011;2720;52.396;10.064;2023-03-31T10:07:26;6.00;;;1.40;;
5393;SDS011;2720;52.396;10.064;2023-03-31T10:09:53;5.27;;;1.40;;
5393;SDS011;2720;52.396;10.064;2023-03-31T10:12:23;4.60;;;1.70;;
5393;SDS011;2720;52.396;10.064;2023-03-31T10:14:53;2.40;;;1.20;;
5393;SDS011;2720;52.396;10.064;2023-03-31T10:17:27;1.93;;;1.50;;
5393;SDS011;2720;52.396;10.064;2023-03-31T10:19:55;7.70;;;2.00;;
5393;SDS011;2720;52.396;10.064;2023-03-31T10:22:27;4.50;;;1.70;;
5393;SDS011;2720;52.396;10.064;2023-03-31T10:25:03;6.47;;;1.87;;
5393;SDS011;2720;52.396;10.064;2023-03-31T10:27:36;3.70;;;1.87;;
5393;SDS011;2720;52.396;10.064;2023-03-31T10:30:08;6.70;;;1.03;;
5393;SDS011;2720;52.396;10.064;2023-03-31T10:32:37;5.60;;;1.53;;
5393;SDS011;2720;52.396;10.064;2023-03-31T10:35:07;3.80;;;0.90;;
5393;SDS011;2720;52.396;10.064;2023-03-31T10:37:44;3.23;;;1.27;;
5393;SDS011;2720;52.396;10.064;2023-03-31T10:40:14;3.93;;;1.00;;
5393;SDS011;2720;52.396;10.064;2023-03-31T10:42:48;6.37;;;1.40;;
5393;SDS011;2720;52.396;10.064;2023-03-31T10:45:40;4.77;;;1.47;;
5393;SDS011;2720;52.396;10.064;2023-03-31T10:48:20;1.30;;;0.80;;
5393;SDS011;2720;52.396;10.064;2023-03-31T10:50:50;2.50;;;0.97;;
5393;SDS011;2720;52.396;10.064;2023-03-31T10:53:17;3.77;;;1.23;;
5393;SDS011;2720;52.396;10.064;2023-03-31T10:55:49;1.70;;;0.97;;
5393;SDS011;2720;52.396;10.064;2023-03-31T10:58:30;7.57;;;1.20;;
5393;SDS011;2720;52.396;10.064;2023-03-31T11:01:07;6.10;;;1.20;;
5393;SDS011;2720;52.396;10.064;2023-03-31T11:06:35;1.77;;;1.00;;
5393;SDS011;2720;52.396;10.064;2023-03-31T11:09:15;2.00;;;1.03;;
5393;SDS011;2720;52.396;10.064;2023-03-31T11:11:57;2.93;;;0.80;;
5393;SDS011;2720;52.396;10.064;2023-03-31T11:14:34;0.90;;;0.40;;
5393;SDS011;2720;52.396;10.064;2023-03-31T11:17:12;0.60;;;0.60;;
5393;SDS011;2720;52.396;10.064;2023-03-31T11:19:51;0.63;;;0.63;;
5393;SDS011;2720;52.396;10.064;2023-03-31T11:22:30;2.43;;;0.57;;
5393;SDS011;2720;52.396;10.064;2023-03-31T11:25:08;2.30;;;0.80;;
5393;SDS011;2720;52.396;10.064;2023-03-31T11:28:01;6.23;;;0.80;;
5393;SDS011;2720;52.396;10.064;2023-03-31T11:30:47;2.37;;;1.27;;
5393;SDS011;2720;52.396;10.064;2023-03-31T11:33:29;1.50;;;0.70;;
5393;SDS011;2720;52.396;10.064;2023-03-31T11:36:08;1.63;;;0.60;;
5393;SDS011;2720;52.396;10.064;2023-03-31T11:38:46;2.10;;;0.70;;
5393;SDS011;2720;52.396;10.064;2023-03-31T11:41:26;2.00;;;0.60;;
5393;SDS011;2720;52.396;10.064;2023-03-31T11:43:58;6.70;;;1.10;;
5393;SDS011;2720;52.396;10.064;2023-03-31T11:46:33;1.23;;;0.60;;
5393;SDS011;2720;52.396;10.064;2023-03-31T11:49:05;2.40;;;0.67;;
5393;SDS011;2720;52.396;10.064;2023-03-31T11:51:41;2.20;;;0.67;;
5393;SDS011;2720;52.396;10.064;2023-03-31T11:54:15;2.43;;;0.80;;
5393;SDS011;2720;52.396;10.064;2023-03-31T11:56:45;2.57;;;0.60;;
5393;SDS011;2720;52.396;10.064;2023-03-31T11:59:13;2.10;;;0.57;;
5393;SDS011;2720;52.396;10.064;2023-03-31T12:01:44;8.67;;;1.20;;
5393;SDS011;2720;52.396;10.064;2023-03-31T12:04:19;2.20;;;0.70;;
5393;SDS011;2720;52.396;10.064;2023-03-31T12:06:57;0.93;;;0.83;;
5393;SDS011;2720;52.396;10.064;2023-03-31T12:09:29;1.30;;;0.70;;
5393;SDS011;2720;52.396;10.064;2023-03-31T12:12:06;0.50;;;0.50;;
5393;SDS011;2720;52.396;10.064;2023-03-31T12:14:38;4.77;;;0.50;;
5393;SDS011;2720;52.396;10.064;2023-03-31T12:17:10;11.57;;;0.63;;
5393;SDS011;2720;52.396;10.064;2023-03-31T12:19:42;2.20;;;0.60;;
5393;SDS011;2720;52.396;10.064;2023-03-31T12:22:13;2.80;;;1.00;;
5393;SDS011;2720;52.396;10.064;2023-03-31T12:24:43;0.50;;;0.47;;
5393;SDS011;2720;52.396;10.064;2023-03-31T12:27:12;2.50;;;0.70;;
5393;SDS011;2720;52.396;10.064;2023-03-31T12:29:43;1.53;;;0.63;;
5393;SDS011;2720;52.396;10.064;2023-03-31T12:32:14;1.43;;;0.53;;
5393;SDS011;2720;52.396;10.064;2023-03-31T12:34:44;2.73;;;0.80;;
5393;SDS011;2720;52.396;10.064;2023-03-31T12:40:17;1.07;;;0.70;;
5393;SDS011;2720;52.396;10.064;2023-03-31T12:43:04;0.80;;;0.63;;
5393;SDS011;2720;52.396;10.064;2023-03-31T12:45:42;6.53;;;0.50;;
5393;SDS011;2720;52.396;10.064;2023-03-31T12:48:27;1.40;;;0.37;;
5393;SDS011;2720;52.396;10.064;2023-03-31T12:51:17;2.70;;;0.73;;
5393;SDS011;2720;52.396;10.064;2023-03-31T12:53:56;0.77;;;0.60;;
5393;SDS011;2720;52.396;10.064;2023-03-31T12:59:31;10.43;;;0.73;;
5393;SDS011;2720;52.396;10.064;2023-03-31T13:04:58;1.67;;;0.40;;
5393;SDS011;2720;52.396;10.064;2023-03-31T13:07:35;1.70;;;0.60;;
5393;SDS011;2720;52.396;10.064;2023-03-31T13:12:57;3.03;;;1.17;;
5393;SDS011;2720;52.396;10.064;2023-03-31T13:15:27;0.87;;;0.50;;
5393;SDS011;2720;52.396;10.064;2023-03-31T13:17:56;1.53;;;0.73;;
5393;SDS011;2720;52.396;10.064;2023-03-31T13:20:32;3.87;;;0.60;;
5393;SDS011;2720;52.396;10.064;2023-03-31T13:23:03;2.83;;;0.77;;
5393;SDS011;2720;52.396;10.064;2023-03-31T13:28:32;9.30;;;1.00;;
5393;SDS011;2720;52.396;10.064;2023-03-31T13:31:03;6.40;;;0.93;;
5393;SDS011;2720;52.396;10.064;2023-03-31T13:33:32;0.63;;;0.60;;
5393;SDS011;2720;52.396;10.064;2023-03-31T13:39:10;1.93;;;0.67;;
5393;SDS011;2720;52.396;10.064;2023-03-31T13:41:55;2.50;;;0.60;;
5393;SDS011;2720;52.396;10.064;2023-03-31T13:47:32;4.00;;;1.00;;
5393;SDS011;2720;52.396;10.064;2023-03-31T13:50:22;2.83;;;1.20;;
5393;SDS011;2720;52.396;10.064;2023-03-31T13:53:01;1.70;;;0.80;;
5393;SDS011;2720;52.396;10.064;2023-03-31T14:01:39;2.60;;;0.90;;
5393;SDS011;2720;52.396;10.064;2023-03-31T14:04:46;5.40;;;1.30;;
5393;SDS011;2720;52.396;10.064;2023-03-31T14:07:28;1.43;;;0.93;;
5393;SDS011;2720;52.396;10.064;2023-03-31T14:09:57;2.37;;;1.03;;
5393;SDS011;2720;52.396;10.064;2023-03-31T14:12:30;11.37;;;1.93;;
5393;SDS011;2720;52.396;10.064;2023-03-31T14:14:59;2.83;;;1.33;;
5393;SDS011;2720;52.396;10.064;2023-03-31T14:17:28;0.80;;;0.80;;
5393;SDS011;2720;52.396;10.064;2023-03-31T14:20:08;6.80;;;1.77;;
5393;SDS011;2720;52.396;10.064;2023-03-31T14:22:49;2.33;;;0.90;;
5393;SDS011;2720;52.396;10.064;2023-03-31T14:25:28;4.37;;;1.20;;
5393;SDS011;2720;52.396;10.064;2023-03-31T14:28:08;2.80;;;1.00;;
5393;SDS011;2720;52.396;10.064;2023-03-31T14:30:49;2.30;;;0.67;;
5393;SDS011;2720;52.396;10.064;2023-03-31T14:33:29;8.07;;;1.60;;
5393;SDS011;2720;52.396;10.064;2023-03-31T14:36:04;1.37;;;0.87;;
5393;SDS011;2720;52.396;10.064;2023-03-31T14:38:36;2.70;;;0.90;;
5393;SDS011;2720;52.396;10.064;2023-03-31T14:41:03;2.40;;;1.20;;
5393;SDS011;2720;52.396;10.064;2023-03-31T14:43:32;1.63;;;1.13;;
5393;SDS011;2720;52.396;10.064;2023-03-31T14:46:17;5.00;;;1.17;;
5393;SDS011;2720;52.396;10.064;2023-03-31T14:48:46;9.43;;;2.20;;
5393;SDS011;2720;52.396;10.064;2023-03-31T14:51:16;3.90;;;1.23;;
5393;SDS011;2720;52.396;10.064;2023-03-31T14:53:54;5.80;;;1.00;;
5393;SDS011;2720;52.396;10.064;2023-03-31T14:56:23;4.13;;;1.17;;
5393;SDS011;2720;52.396;10.064;2023-03-31T14:58:59;9.60;;;1.67;;
5393;SDS011;2720;52.396;10.064;2023-03-31T15:01:28;6.57;;;1.53;;
5393;SDS011;2720;52.396;10.064;2023-03-31T15:03:59;7.83;;;1.80;;
5393;SDS011;2720;52.396;10.064;2023-03-31T15:06:30;8.13;;;1.80;;
5393;SDS011;2720;52.396;10.064;2023-03-31T15:08:59;5.90;;;1.50;;
5393;SDS011;2720;52.396;10.064;2023-03-31T15:11:28;6.20;;;1.30;;
5393;SDS011;2720;52.396;10.064;2023-03-31T15:13:56;5.43;;;1.30;;
5393;SDS011;2720;52.396;10.064;2023-03-31T15:16:28;6.80;;;1.47;;
5393;SDS011;2720;52.396;10.064;2023-03-31T15:18:58;10.53;;;1.70;;
5393;SDS011;2720;52.396;10.064;2023-03-31T15:21:27;10.33;;;1.60;;
5393;SDS011;2720;52.396;10.064;2023-03-31T15:23:56;10.50;;;2.30;;
5393;SDS011;2720;52.396;10.064;2023-03-31T15:26:24;5.70;;;1.27;;
5393;SDS011;2720;52.396;10.064;2023-03-31T15:28:56;4.63;;;1.20;;
5393;SDS011;2720;52.396;10.064;2023-03-31T15:31:28;6.77;;;1.50;;
5393;SDS011;2720;52.396;10.064;2023-03-31T15:33:56;2.70;;;1.53;;
5393;SDS011;2720;52.396;10.064;2023-03-31T15:36:23;10.00;;;1.77;;
5393;SDS011;2720;52.396;10.064;2023-03-31T15:38:53;4.30;;;2.00;;
5393;SDS011;2720;52.396;10.064;2023-03-31T15:41:23;8.97;;;1.40;;
5393;SDS011;2720;52.396;10.064;2023-03-31T15:44:02;6.83;;;2.00;;
5393;SDS011;2720;52.396;10.064;2023-03-31T15:46:49;5.10;;;1.60;;
5393;SDS011;2720;52.396;10.064;2023-03-31T15:49:23;2.10;;;1.00;;
5393;SDS011;2720;52.396;10.064;2023-03-31T15:51:52;3.00;;;0.80;;
5393;SDS011;2720;52.396;10.064;2023-03-31T15:57:08;3.53;;;0.80;;
5393;SDS011;2720;52.396;10.064;2023-03-31T15:59:43;4.10;;;1.40;;
5393;SDS011;2720;52.396;10.064;2023-03-31T16:02:14;4.80;;;1.47;;
5393;SDS011;2720;52.396;10.064;2023-03-31T16:04:43;6.03;;;1.00;;
5393;SDS011;2720;52.396;10.064;2023-03-31T16:07:14;5.03;;;1.50;;